KLAF/LAF METAR and TAF weather

Enter ICAO airport designator
Station Type Date Time Source
KLAF METAR 2022/01/29 12:54 UTC NOAA

KLAF 291254Z 27004KT 10SM BKN080 M18/M20 A3029 RMK AO2 SLP271 T11831200


Station Type Date Time Source
KLAF Decoded METAR 2022/01/29 12:54 UTC NOAA

LAFAYETTE PURDUE UNIV AIRPORT , IN, United States (KLAF) 40-25N 86-57W 182M
Jan 29, 2022 - 07:54 AM EST / 2022.01.29 1254 UTC
Wind: from the W (270 degrees) at 5 MPH (4 KT):0
Visibility: 10 mile(s):0
Sky conditions: mostly cloudy
Temperature: -0.9 F (-18.3 C)
Windchill: -11 F (-24 C):2
Dew Point: -4.0 F (-20.0 C)
Relative Humidity: 86%
Pressure (altimeter): 30.29 in. Hg (1025 hPa)
ob: KLAF 291254Z 27004KT 10SM BKN080 M18/M20 A3029 RMK AO2 SLP271 T11831200
cycle: 13

Station Type Date Time Source
KLAF TAF 2022/01/29 12:28 UTC NOAA

TAF KLAF 291126Z 2912/3012 22007KT P6SM BKN090
FM292300 18006KT P6SM BKN180
AMD LTD TO CLD VIS AND WIND TIL 291400

Example: see airport list